sensor_id;sensor_type;location;lat;lon;timestamp;pressure;altitude;pressure_sealevel;temperature;humidity
12913;BME280;6524;51.368;11.984;2023-06-10T04:00:16;100343.50;;;11.46;73.90
12913;BME280;6524;51.368;11.984;2023-06-10T04:05:29;100349.84;;;11.56;73.73
12913;BME280;6524;51.368;11.984;2023-06-10T04:10:30;100359.44;;;11.57;74.13
12913;BME280;6524;51.368;11.984;2023-06-10T04:15:30;100369.06;;;11.58;74.06
12913;BME280;6524;51.368;11.984;2023-06-10T04:20:33;100371.00;;;11.69;73.68
12913;BME280;6524;51.368;11.984;2023-06-10T04:25:33;100366.66;;;11.81;73.44
12913;BME280;6524;51.368;11.984;2023-06-10T04:30:34;100376.28;;;11.82;73.34
12913;BME280;6524;51.368;11.984;2023-06-10T04:35:34;100372.81;;;11.69;74.10
12913;BME280;6524;51.368;11.984;2023-06-10T04:40:34;100377.00;;;11.58;74.36
12913;BME280;6524;51.368;11.984;2023-06-10T04:45:35;100383.59;;;11.66;74.24
12913;BME280;6524;51.368;11.984;2023-06-10T04:50:35;100379.63;;;11.97;73.06
12913;BME280;6524;51.368;11.984;2023-06-10T04:55:35;100385.81;;;12.08;73.05
12913;BME280;6524;51.368;11.984;2023-06-10T05:00:36;100380.38;;;12.23;72.54
12913;BME280;6524;51.368;11.984;2023-06-10T05:05:36;100380.44;;;12.10;72.71
12913;BME280;6524;51.368;11.984;2023-06-10T05:10:37;100385.78;;;12.45;71.79
12913;BME280;6524;51.368;11.984;2023-06-10T06:02:09;100388.28;;;13.98;67.45
12913;BME280;6524;51.368;11.984;2023-06-10T06:07:09;100393.09;;;13.92;66.87
12913;BME280;6524;51.368;11.984;2023-06-10T06:12:10;100400.56;;;14.21;66.29
12913;BME280;6524;51.368;11.984;2023-06-10T06:17:11;100402.28;;;14.22;65.99
12913;BME280;6524;51.368;11.984;2023-06-10T06:22:11;100406.53;;;14.46;65.64
12913;BME280;6524;51.368;11.984;2023-06-10T06:27:11;100409.44;;;14.54;65.14
12913;BME280;6524;51.368;11.984;2023-06-10T06:32:12;100423.78;;;14.83;64.10
12913;BME280;6524;51.368;11.984;2023-06-10T06:37:12;100409.91;;;15.12;63.11
12913;BME280;6524;51.368;11.984;2023-06-10T06:42:13;100419.69;;;15.32;62.22
12913;BME280;6524;51.368;11.984;2023-06-10T06:47:13;100423.97;;;15.45;62.10
12913;BME280;6524;51.368;11.984;2023-06-10T06:52:15;100425.97;;;15.73;61.65
12913;BME280;6524;51.368;11.984;2023-06-10T06:57:15;100424.25;;;16.13;60.02
12913;BME280;6524;51.368;11.984;2023-06-10T07:02:16;100423.19;;;16.35;60.36
12913;BME280;6524;51.368;11.984;2023-06-10T07:07:16;100430.00;;;16.78;58.74
12913;BME280;6524;51.368;11.984;2023-06-10T07:12:17;100428.72;;;17.21;57.79
12913;BME280;6524;51.368;11.984;2023-06-10T07:17:18;100426.72;;;17.89;54.83
12913;BME280;6524;51.368;11.984;2023-06-10T07:22:19;100433.56;;;18.01;55.39
12913;BME280;6524;51.368;11.984;2023-06-10T07:27:20;100435.81;;;18.24;54.88
12913;BME280;6524;51.368;11.984;2023-06-10T07:32:20;100442.19;;;18.94;52.46
12913;BME280;6524;51.368;11.984;2023-06-10T07:37:22;100444.03;;;19.56;51.03
12913;BME280;6524;51.368;11.984;2023-06-10T07:42:23;100462.34;;;19.95;49.70
12913;BME280;6524;51.368;11.984;2023-06-10T07:47:23;100453.38;;;19.78;50.19
12913;BME280;6524;51.368;11.984;2023-06-10T07:52:24;100451.91;;;19.83;49.97
12913;BME280;6524;51.368;11.984;2023-06-10T07:57:24;100455.84;;;20.48;49.60
12913;BME280;6524;51.368;11.984;2023-06-10T08:02:25;100458.22;;;20.59;49.36
12913;BME280;6524;51.368;11.984;2023-06-10T08:07:26;100454.88;;;20.73;48.67
12913;BME280;6524;51.368;11.984;2023-06-10T08:12:26;100453.88;;;20.91;47.98
12913;BME280;6524;51.368;11.984;2023-06-10T08:17:27;100448.06;;;21.12;47.69
12913;BME280;6524;51.368;11.984;2023-06-10T08:22:28;100456.94;;;21.37;47.40
12913;BME280;6524;51.368;11.984;2023-06-10T08:27:29;100449.66;;;21.54;46.69
12913;BME280;6524;51.368;11.984;2023-06-10T08:32:30;100461.63;;;21.43;47.26
12913;BME280;6524;51.368;11.984;2023-06-10T08:37:30;100455.91;;;21.62;46.37
12913;BME280;6524;51.368;11.984;2023-06-10T08:47:44;100451.63;;;22.24;46.02
12913;BME280;6524;51.368;11.984;2023-06-10T08:52:48;100447.53;;;22.36;44.72
12913;BME280;6524;51.368;11.984;2023-06-10T08:57:53;100439.91;;;22.71;44.65
12913;BME280;6524;51.368;11.984;2023-06-10T09:02:55;100441.91;;;23.15;42.96
12913;BME280;6524;51.368;11.984;2023-06-10T09:07:57;100434.41;;;23.10;43.42
12913;BME280;6524;51.368;11.984;2023-06-10T09:12:57;100431.78;;;23.02;42.96
12913;BME280;6524;51.368;11.984;2023-06-10T09:17:59;100426.22;;;22.80;44.67
12913;BME280;6524;51.368;11.984;2023-06-10T09:23:00;100431.41;;;23.57;43.03
12913;BME280;6524;51.368;11.984;2023-06-10T09:28:01;100433.66;;;23.98;41.82
12913;BME280;6524;51.368;11.984;2023-06-10T09:33:09;100442.03;;;24.03;41.87
12913;BME280;6524;51.368;11.984;2023-06-10T09:38:10;100442.22;;;24.53;40.89
12913;BME280;6524;51.368;11.984;2023-06-10T09:43:11;100451.53;;;24.72;40.25
12913;BME280;6524;51.368;11.984;2023-06-10T09:48:13;100435.69;;;25.12;39.50
12913;BME280;6524;51.368;11.984;2023-06-10T09:53:17;100439.41;;;24.89;38.72
12913;BME280;6524;51.368;11.984;2023-06-10T09:58:17;100444.88;;;25.17;38.85
12913;BME280;6524;51.368;11.984;2023-06-10T10:03:24;100440.06;;;25.41;38.73
12913;BME280;6524;51.368;11.984;2023-06-10T10:08:24;100440.81;;;25.28;38.94
12913;BME280;6524;51.368;11.984;2023-06-10T10:13:25;100441.66;;;25.01;39.77
12913;BME280;6524;51.368;11.984;2023-06-10T10:18:29;100435.91;;;25.38;38.89
12913;BME280;6524;51.368;11.984;2023-06-10T10:23:53;100432.34;;;25.38;38.51
12913;BME280;6524;51.368;11.984;2023-06-10T10:34:12;100425.25;;;25.37;39.35
12913;BME280;6524;51.368;11.984;2023-06-10T10:39:15;100412.78;;;26.12;37.33
12913;BME280;6524;51.368;11.984;2023-06-10T10:44:16;100418.72;;;26.49;37.03
12913;BME280;6524;51.368;11.984;2023-06-10T10:49:19;100411.38;;;26.29;36.32
12913;BME280;6524;51.368;11.984;2023-06-10T10:54:28;100409.28;;;26.31;36.66
12913;BME280;6524;51.368;11.984;2023-06-10T10:59:47;100405.44;;;26.54;36.11
12913;BME280;6524;51.368;11.984;2023-06-10T11:04:55;100397.28;;;26.94;37.09
12913;BME280;6524;51.368;11.984;2023-06-10T11:10:02;100401.66;;;25.94;37.54
12913;BME280;6524;51.368;11.984;2023-06-10T11:15:03;100386.97;;;25.68;39.41
12913;BME280;6524;51.368;11.984;2023-06-10T11:20:04;100388.34;;;25.92;40.09
12913;BME280;6524;51.368;11.984;2023-06-10T11:25:13;100381.19;;;25.71;39.91
12913;BME280;6524;51.368;11.984;2023-06-10T11:30:18;100378.66;;;25.63;39.08
12913;BME280;6524;51.368;11.984;2023-06-10T11:35:23;100362.38;;;25.56;38.71
12913;BME280;6524;51.368;11.984;2023-06-10T11:40:24;100360.38;;;25.37;38.60
12913;BME280;6524;51.368;11.984;2023-06-10T11:45:25;100362.19;;;26.06;38.19
12913;BME280;6524;51.368;11.984;2023-06-10T11:50:32;100354.00;;;25.93;36.63
12913;BME280;6524;51.368;11.984;2023-06-10T11:55:46;100342.69;;;25.34;36.01
12913;BME280;6524;51.368;11.984;2023-06-10T12:00:52;100345.31;;;24.93;36.74
12913;BME280;6524;51.368;11.984;2023-06-10T12:06:05;100337.84;;;25.58;36.45
12913;BME280;6524;51.368;11.984;2023-06-10T12:11:06;100329.72;;;25.51;36.37
12913;BME280;6524;51.368;11.984;2023-06-10T12:16:08;100327.56;;;25.95;35.44
12913;BME280;6524;51.368;11.984;2023-06-10T12:21:17;100326.09;;;25.92;35.11
12913;BME280;6524;51.368;11.984;2023-06-10T12:26:17;100317.69;;;26.48;33.88
12913;BME280;6524;51.368;11.984;2023-06-10T12:31:18;100310.25;;;25.76;34.96
12913;BME280;6524;51.368;11.984;2023-06-10T12:36:18;100314.78;;;26.76;33.87
12913;BME280;6524;51.368;11.984;2023-06-10T12:41:21;100303.50;;;26.40;33.94
12913;BME280;6524;51.368;11.984;2023-06-10T12:46:24;100300.50;;;27.28;33.52
12913;BME280;6524;51.368;11.984;2023-06-10T12:51:25;100300.44;;;27.41;32.30
12913;BME280;6524;51.368;11.984;2023-06-10T12:56:26;100291.91;;;27.89;32.40
12913;BME280;6524;51.368;11.984;2023-06-10T13:01:26;100285.78;;;28.32;30.88
12913;BME280;6524;51.368;11.984;2023-06-10T13:06:27;100278.91;;;28.04;30.06
12913;BME280;6524;51.368;11.984;2023-06-10T13:11:28;100285.78;;;28.32;29.85
12913;BME280;6524;51.368;11.984;2023-06-10T13:16:28;100302.94;;;28.26;29.19
12913;BME280;6524;51.368;11.984;2023-06-10T13:21:29;100311.19;;;27.74;29.30
12913;BME280;6524;51.368;11.984;2023-06-10T13:26:29;100308.69;;;27.73;28.06
12913;BME280;6524;51.368;11.984;2023-06-10T13:31:30;100304.06;;;27.21;30.10
12913;BME280;6524;51.368;11.984;2023-06-10T13:36:32;100293.50;;;26.07;29.91
12913;BME280;6524;51.368;11.984;2023-06-10T13:41:33;100289.00;;;25.25;29.98
12913;BME280;6524;51.368;11.984;2023-06-10T13:46:34;100298.44;;;24.08;30.97
12913;BME280;6524;51.368;11.984;2023-06-10T13:51:37;100292.84;;;23.88;31.30
12913;BME280;6524;51.368;11.984;2023-06-10T13:56:37;100303.78;;;24.01;32.95
12913;BME280;6524;51.368;11.984;2023-06-10T14:01:39;100309.44;;;23.55;34.86
12913;BME280;6524;51.368;11.984;2023-06-10T14:06:40;100331.22;;;24.05;34.87
12913;BME280;6524;51.368;11.984;2023-06-10T14:11:41;100316.13;;;24.32;35.29
12913;BME280;6524;51.368;11.984;2023-06-10T14:16:42;100328.28;;;23.34;35.73
12913;BME280;6524;51.368;11.984;2023-06-10T14:21:43;100320.47;;;24.12;34.78
12913;BME280;6524;51.368;11.984;2023-06-10T14:26:43;100322.69;;;24.23;35.10
12913;BME280;6524;51.368;11.984;2023-06-10T14:31:44;100309.56;;;24.41;34.28
12913;BME280;6524;51.368;11.984;2023-06-10T14:36:44;100315.31;;;24.81;32.95
12913;BME280;6524;51.368;11.984;2023-06-10T14:41:45;100324.69;;;24.85;32.30
12913;BME280;6524;51.368;11.984;2023-06-10T14:46:45;100329.88;;;24.87;34.89
12913;BME280;6524;51.368;11.984;2023-06-10T14:51:46;100334.94;;;24.04;36.64
12913;BME280;6524;51.368;11.984;2023-06-10T14:56:50;100355.09;;;23.72;38.50
12913;BME280;6524;51.368;11.984;2023-06-10T15:01:50;100345.38;;;22.88;39.68
12913;BME280;6524;51.368;11.984;2023-06-10T15:06:51;100352.22;;;22.53;41.33
12913;BME280;6524;51.368;11.984;2023-06-10T15:11:51;100356.06;;;22.36;41.92
12913;BME280;6524;51.368;11.984;2023-06-10T15:16:52;100352.84;;;22.40;42.37
12913;BME280;6524;51.368;11.984;2023-06-10T15:21:53;100349.75;;;21.50;44.54
12913;BME280;6524;51.368;11.984;2023-06-10T15:26:53;100340.72;;;21.43;45.94
12913;BME280;6524;51.368;11.984;2023-06-10T15:31:54;100338.72;;;21.37;46.00
12913;BME280;6524;51.368;11.984;2023-06-10T15:36:55;100337.81;;;21.52;45.43
12913;BME280;6524;51.368;11.984;2023-06-10T15:41:55;100330.59;;;21.53;45.15
12913;BME280;6524;51.368;11.984;2023-06-10T15:46:56;100322.75;;;21.35;44.74
12913;BME280;6524;51.368;11.984;2023-06-10T15:51:56;100327.03;;;20.97;45.44
12913;BME280;6524;51.368;11.984;2023-06-10T15:56:57;100333.44;;;20.55;45.14
12913;BME280;6524;51.368;11.984;2023-06-10T16:01:58;100320.34;;;20.76;44.83
12913;BME280;6524;51.368;11.984;2023-06-10T16:06:58;100325.41;;;20.63;45.39
12913;BME280;6524;51.368;11.984;2023-06-10T16:11:59;100318.03;;;20.65;44.78
12913;BME280;6524;51.368;11.984;2023-06-10T16:17:00;100311.16;;;20.46;45.91
12913;BME280;6524;51.368;11.984;2023-06-10T16:22:01;100315.34;;;20.57;45.55
12913;BME280;6524;51.368;11.984;2023-06-10T16:27:01;100307.47;;;20.55;46.25
12913;BME280;6524;51.368;11.984;2023-06-10T16:32:02;100308.31;;;20.56;45.30
12913;BME280;6524;51.368;11.984;2023-06-10T16:37:03;100303.44;;;20.43;45.56
12913;BME280;6524;51.368;11.984;2023-06-10T16:42:03;100303.78;;;20.40;46.02
12913;BME280;6524;51.368;11.984;2023-06-10T16:47:05;100302.59;;;20.59;45.72
12913;BME280;6524;51.368;11.984;2023-06-10T16:52:06;100309.31;;;20.47;45.00
12913;BME280;6524;51.368;11.984;2023-06-10T16:57:06;100306.47;;;20.65;44.68
12913;BME280;6524;51.368;11.984;2023-06-10T17:02:07;100308.81;;;20.68;44.37
12913;BME280;6524;51.368;11.984;2023-06-10T17:07:08;100308.94;;;20.82;44.87
12913;BME280;6524;51.368;11.984;2023-06-10T17:12:09;100318.84;;;20.82;44.59
12913;BME280;6524;51.368;11.984;2023-06-10T17:17:09;100328.88;;;20.88;45.07
12913;BME280;6524;51.368;11.984;2023-06-10T17:22:13;100321.31;;;20.92;45.45
12913;BME280;6524;51.368;11.984;2023-06-10T17:27:13;100316.28;;;21.13;45.47
12913;BME280;6524;51.368;11.984;2023-06-10T17:32:14;100320.59;;;21.31;45.04
12913;BME280;6524;51.368;11.984;2023-06-10T17:37:15;100321.66;;;21.13;45.84
12913;BME280;6524;51.368;11.984;2023-06-10T17:42:15;100336.78;;;21.06;44.66
12913;BME280;6524;51.368;11.984;2023-06-10T17:47:16;100335.75;;;21.15;45.16
12913;BME280;6524;51.368;11.984;2023-06-10T17:52:17;100338.13;;;20.94;45.85
12913;BME280;6524;51.368;11.984;2023-06-10T17:57:17;100336.28;;;21.02;45.77
12913;BME280;6524;51.368;11.984;2023-06-10T18:02:18;100345.50;;;20.92;46.22
12913;BME280;6524;51.368;11.984;2023-06-10T18:07:18;100346.19;;;21.02;45.91
12913;BME280;6524;51.368;11.984;2023-06-10T18:12:20;100341.81;;;21.01;47.14
12913;BME280;6524;51.368;11.984;2023-06-10T18:17:20;100345.16;;;20.95;47.18
12913;BME280;6524;51.368;11.984;2023-06-10T18:22:21;100359.94;;;20.74;47.70
12913;BME280;6524;51.368;11.984;2023-06-10T18:27:21;100356.78;;;20.71;48.43
12913;BME280;6524;51.368;11.984;2023-06-10T18:32:25;100352.22;;;20.63;47.90
12913;BME280;6524;51.368;11.984;2023-06-10T18:37:25;100356.75;;;20.46;48.27
12913;BME280;6524;51.368;11.984;2023-06-10T18:42:26;100366.25;;;20.32;49.35
12913;BME280;6524;51.368;11.984;2023-06-10T18:47:26;100368.63;;;20.27;49.76
12913;BME280;6524;51.368;11.984;2023-06-10T18:52:27;100357.84;;;20.19;50.43
12913;BME280;6524;51.368;11.984;2023-06-10T18:57:27;100360.34;;;20.04;50.51
12913;BME280;6524;51.368;11.984;2023-06-10T19:02:28;100372.84;;;19.87;51.24
12913;BME280;6524;51.368;11.984;2023-06-10T19:07:29;100372.56;;;19.64;51.54
12913;BME280;6524;51.368;11.984;2023-06-10T19:12:29;100371.31;;;19.51;52.51
12913;BME280;6524;51.368;11.984;2023-06-10T19:17:30;100374.94;;;19.33;52.93
12913;BME280;6524;51.368;11.984;2023-06-10T19:22:31;100373.34;;;19.22;53.96
12913;BME280;6524;51.368;11.984;2023-06-10T19:27:32;100383.94;;;18.88;54.80
12913;BME280;6524;51.368;11.984;2023-06-10T19:32:33;100386.31;;;18.91;55.24
12913;BME280;6524;51.368;11.984;2023-06-10T19:37:34;100393.22;;;18.76;56.48
12913;BME280;6524;51.368;11.984;2023-06-10T19:42:34;100399.03;;;18.53;57.58
12913;BME280;6524;51.368;11.984;2023-06-10T19:47:37;100410.44;;;18.28;58.33
12913;BME280;6524;51.368;11.984;2023-06-10T19:52:38;100410.81;;;18.15;58.63
12913;BME280;6524;51.368;11.984;2023-06-10T19:57:38;100420.47;;;17.98;59.55
12913;BME280;6524;51.368;11.984;2023-06-10T20:02:39;100417.13;;;17.96;59.35
12913;BME280;6524;51.368;11.984;2023-06-10T20:07:39;100419.78;;;17.96;59.65
12913;BME280;6524;51.368;11.984;2023-06-10T20:12:41;100426.81;;;17.97;59.73
12913;BME280;6524;51.368;11.984;2023-06-10T20:17:42;100427.31;;;17.83;59.96
12913;BME280;6524;51.368;11.984;2023-06-10T20:22:45;100425.00;;;17.88;59.81
12913;BME280;6524;51.368;11.984;2023-06-10T20:27:46;100431.50;;;17.76;60.58
12913;BME280;6524;51.368;11.984;2023-06-10T20:32:47;100443.97;;;17.57;61.10
12913;BME280;6524;51.368;11.984;2023-06-10T20:37:48;100438.84;;;17.74;61.15
12913;BME280;6524;51.368;11.984;2023-06-10T20:42:50;100434.53;;;17.53;61.46
12913;BME280;6524;51.368;11.984;2023-06-10T20:47:50;100436.28;;;17.35;62.49
12913;BME280;6524;51.368;11.984;2023-06-10T20:52:51;100434.75;;;16.84;63.43
12913;BME280;6524;51.368;11.984;2023-06-10T20:57:53;100434.91;;;16.73;64.17
12913;BME280;6524;51.368;11.984;2023-06-10T21:02:55;100431.81;;;16.87;63.38
12913;BME280;6524;51.368;11.984;2023-06-10T21:07:58;100438.56;;;16.81;62.94
12913;BME280;6524;51.368;11.984;2023-06-10T21:12:59;100439.00;;;16.77;63.21
12913;BME280;6524;51.368;11.984;2023-06-10T21:18:01;100437.00;;;16.59;63.53
12913;BME280;6524;51.368;11.984;2023-06-10T21:34:33;100438.03;;;16.18;65.14
12913;BME280;6524;51.368;11.984;2023-06-10T21:39:33;100444.94;;;15.90;65.39
12913;BME280;6524;51.368;11.984;2023-06-10T21:44:34;100445.84;;;15.69;66.32
12913;BME280;6524;51.368;11.984;2023-06-10T21:49:35;100450.94;;;15.61;66.57
12913;BME280;6524;51.368;11.984;2023-06-10T21:54:35;100455.81;;;15.56;66.16
12913;BME280;6524;51.368;11.984;2023-06-10T21:59:36;100450.28;;;15.38;66.81
12913;BME280;6524;51.368;11.984;2023-06-10T22:04:37;100455.94;;;15.13;67.27
12913;BME280;6524;51.368;11.984;2023-06-10T22:09:44;100457.00;;;15.00;67.61
12913;BME280;6524;51.368;11.984;2023-06-10T22:14:46;100451.34;;;14.94;67.41
12913;BME280;6524;51.368;11.984;2023-06-10T22:19:46;100454.38;;;14.78;67.88
12913;BME280;6524;51.368;11.984;2023-06-10T22:24:47;100461.84;;;14.52;69.18
12913;BME280;6524;51.368;11.984;2023-06-10T22:29:53;100460.47;;;14.25;69.87
12913;BME280;6524;51.368;11.984;2023-06-10T22:34:54;100457.78;;;14.14;70.61
12913;BME280;6524;51.368;11.984;2023-06-10T22:39:54;100460.19;;;14.06;70.71
12913;BME280;6524;51.368;11.984;2023-06-10T22:44:54;100466.72;;;13.90;71.86
12913;BME280;6524;51.368;11.984;2023-06-10T22:49:55;100471.28;;;13.77;71.49
12913;BME280;6524;51.368;11.984;2023-06-10T22:54:55;100462.72;;;13.74;71.64
12913;BME280;6524;51.368;11.984;2023-06-10T22:59:57;100460.31;;;13.70;71.59
12913;BME280;6524;51.368;11.984;2023-06-10T23:04:58;100461.38;;;13.45;72.03
12913;BME280;6524;51.368;11.984;2023-06-10T23:09:58;100468.84;;;13.40;71.49
12913;BME280;6524;51.368;11.984;2023-06-10T23:14:58;100469.53;;;13.31;72.04
12913;BME280;6524;51.368;11.984;2023-06-10T23:19:59;100466.59;;;13.23;73.26
12913;BME280;6524;51.368;11.984;2023-06-10T23:25:01;100465.56;;;13.01;73.30
12913;BME280;6524;51.368;11.984;2023-06-10T23:30:04;100470.13;;;12.99;72.99
12913;BME280;6524;51.368;11.984;2023-06-10T23:35:05;100474.13;;;13.05;72.35
12913;BME280;6524;51.368;11.984;2023-06-10T23:40:06;100474.03;;;12.83;73.18
12913;BME280;6524;51.368;11.984;2023-06-10T23:45:09;100474.94;;;12.70;73.57
12913;BME280;6524;51.368;11.984;2023-06-10T23:50:09;100480.63;;;12.77;72.48
12913;BME280;6524;51.368;11.984;2023-06-10T23:55:10;100483.47;;;12.63;72.98
